La rose des vents
Donnes mto: Semaine 02/06/08 - 08/06/08 (S 23)
Date Horaire Temp. E. Hum. E. P.atmo. Pluie Vent 1mn Direction Ensoleilleme Ev.Tr. Solaire P. de rose Temp au vent Rafales
02/06/2008 00:00 16,2 C 89 % 1012,8 hPa 0,2 l/m 6,1 km/h (2 Bft) N 0,00 h 0,025 mm 0 W/m 14,4 C 16,2 C 9,4 km/h (2 Bft)
02/06/2008 01:00 16,2 C 89 % 1013,1 hPa 0,0 l/m 4,1 km/h (1 Bft) O 0,00 h 0,025 mm 0 W/m 14,4 C 16,2 C 6,1 km/h (2 Bft)
02/06/2008 02:00 16,1 C 89 % 1013,3 hPa 0,6 l/m 6,8 km/h (2 Bft) NO 0,00 h 0,025 mm 0 W/m 14,4 C 16,1 C 9,9 km/h (2 Bft)
02/06/2008 03:00 15,8 C 92 % 1013,4 hPa 4,4 l/m 6,2 km/h (2 Bft) S-SO 0,00 h 0,025 mm 0 W/m 14,4 C 15,8 C 8,9 km/h (2 Bft)
02/06/2008 04:00 15,3 C 93 % 1012,5 hPa 0,8 l/m 6,6 km/h (2 Bft) NO 0,00 h 0,025 mm 0 W/m 14,3 C 15,3 C 9,6 km/h (2 Bft)
02/06/2008 05:00 15,2 C 94 % 1012,0 hPa 0,2 l/m 4,9 km/h (1 Bft) O-NO 0,00 h 0,025 mm 0 W/m 14,3 C 15,2 C 7,2 km/h (2 Bft)
02/06/2008 06:00 15,4 C 94 % 1011,6 hPa 0,0 l/m 2,9 km/h (1 Bft) O-NO 0,00 h 0,000 mm 29 W/m 14,4 C 15,4 C 5,1 km/h (1 Bft)
02/06/2008 07:00 15,7 C 94 % 1011,9 hPa 0,8 l/m 2,9 km/h (1 Bft) N 0,00 h 0,025 mm 22 W/m 14,8 C 15,7 C 5,0 km/h (1 Bft)
02/06/2008 08:00 16,2 C 94 % 1012,7 hPa 0,2 l/m 0,7 km/h (0 Bft) N 0,00 h 0,025 mm 94 W/m 15,3 C 16,2 C 1,7 km/h (1 Bft)
02/06/2008 09:00 16,9 C 94 % 1013,0 hPa 0,0 l/m 0,2 km/h (0 Bft) N-NE 0,00 h 0,051 mm 92 W/m 15,9 C 16,9 C 0,7 km/h (0 Bft)
02/06/2008 10:00 17,5 C 94 % 1013,2 hPa 0,0 l/m 2,0 km/h (1 Bft) N-NO 0,10 h 0,051 mm 247 W/m 16,6 C 17,5 C 4,3 km/h (1 Bft)
02/06/2008 11:00 20,0 C 81 % 1013,3 hPa 0,0 l/m 1,8 km/h (1 Bft) N 0,77 h 0,152 mm 588 W/m 16,7 C 20,0 C 4,4 km/h (1 Bft)
02/06/2008 12:00 21,9 C 71 % 1013,3 hPa 0,0 l/m 3,5 km/h (1 Bft) E-NE 0,88 h 0,356 mm 719 W/m 16,3 C 21,9 C 6,0 km/h (2 Bft)
02/06/2008 13:00 22,6 C 68 % 1013,1 hPa 0,0 l/m 5,0 km/h (1 Bft) E 0,75 h 0,457 mm 829 W/m 16,4 C 22,6 C 8,3 km/h (2 Bft)
02/06/2008 14:00 23,2 C 63 % 1012,7 hPa 0,0 l/m 6,1 km/h (2 Bft) SE 1,00 h 0,508 mm 894 W/m 15,8 C 23,2 C 10,2 km/h (2 Bft)
02/06/2008 15:00 23,5 C 61 % 1012,2 hPa 0,0 l/m 7,2 km/h (2 Bft) E 1,00 h 0,584 mm 803 W/m 15,6 C 23,5 C 11,4 km/h (2 Bft)
02/06/2008 16:00 23,6 C 65 % 1011,8 hPa 0,0 l/m 8,8 km/h (2 Bft) E 1,00 h 0,533 mm 691 W/m 16,7 C 23,6 C 13,1 km/h (3 Bft)
02/06/2008 17:00 22,0 C 74 % 1012,2 hPa 0,0 l/m 9,3 km/h (2 Bft) E 0,92 h 0,457 mm 509 W/m 17,1 C 22,0 C 14,2 km/h (3 Bft)
02/06/2008 18:00 20,1 C 79 % 1012,3 hPa 0,0 l/m 3,4 km/h (1 Bft) E 0,18 h 0,330 mm 201 W/m 16,3 C 20,1 C 5,5 km/h (1 Bft)
02/06/2008 19:00 19,8 C 79 % 1012,3 hPa 0,0 l/m 1,4 km/h (1 Bft) E 0,45 h 0,127 mm 139 W/m 16,1 C 19,8 C 2,5 km/h (1 Bft)
02/06/2008 20:00 18,4 C 83 % 1012,8 hPa 0,0 l/m 2,5 km/h (1 Bft) E 0,00 h 0,076 mm 16 W/m 15,4 C 18,4 C 3,7 km/h (1 Bft)
02/06/2008 21:00 17,6 C 87 % 1012,6 hPa 0,0 l/m 1,0 km/h (0 Bft) S 0,00 h 0,025 mm 0 W/m 15,3 C 17,6 C 1,6 km/h (1 Bft)
02/06/2008 22:00 16,8 C 89 % 1012,6 hPa 0,0 l/m 4,6 km/h (1 Bft) O 0,00 h 0,000 mm 0 W/m 14,9 C 16,8 C 5,7 km/h (1 Bft)
02/06/2008 23:00 16,1 C 90 % 1012,2 hPa 0,0 l/m 3,9 km/h (1 Bft) O-NO 0,00 h 0,025 mm 0 W/m 14,5 C 16,1 C 5,4 km/h (1 Bft)
03/06/2008 00:00 15,6 C 91 % 1012,0 hPa 0,0 l/m 1,6 km/h (1 Bft) NO 0,00 h 0,025 mm 0 W/m 14,1 C 15,6 C 2,9 km/h (1 Bft)
03/06/2008 01:00 15,1 C 91 % 1011,6 hPa 0,0 l/m 5,8 km/h (2 Bft) O-NO 0,00 h 0,025 mm 0 W/m 13,6 C 15,1 C 7,6 km/h (2 Bft)
03/06/2008 02:00 14,8 C 91 % 1011,2 hPa 0,0 l/m 1,9 km/h (1 Bft) NO 0,00 h 0,025 mm 0 W/m 13,4 C 14,8 C 3,2 km/h (1 Bft)
03/06/2008 03:00 14,6 C 91 % 1011,0 hPa 0,0 l/m 1,5 km/h (1 Bft) NO 0,00 h 0,025 mm 0 W/m 13,1 C 14,6 C 3,2 km/h (1 Bft)
03/06/2008 04:00 14,5 C 90 % 1010,7 hPa 0,0 l/m 3,3 km/h (1 Bft) NO 0,00 h 0,025 mm 0 W/m 12,9 C 14,5 C 4,8 km/h (1 Bft)
03/06/2008 05:00 14,5 C 89 % 1010,7 hPa 0,0 l/m 5,7 km/h (1 Bft) NO 0,00 h 0,025 mm 6 W/m 12,6 C 14,5 C 7,3 km/h (2 Bft)
03/06/2008 06:00 14,2 C 87 % 1010,6 hPa 0,0 l/m 3,7 km/h (1 Bft) O-NO 0,03 h 0,025 mm 21 W/m 12,0 C 14,2 C 5,5 km/h (1 Bft)
03/06/2008 07:00 15,5 C 86 % 1010,6 hPa 0,0 l/m 0,5 km/h (0 Bft) O-NO 0,42 h 0,025 mm 126 W/m 13,1 C 15,5 C 1,1 km/h (1 Bft)
03/06/2008 08:00 17,5 C 79 % 1011,0 hPa 0,0 l/m 1,4 km/h (1 Bft) SO 1,00 h 0,076 mm 365 W/m 13,9 C 17,5 C 3,4 km/h (1 Bft)
03/06/2008 09:00 19,7 C 72 % 1011,2 hPa 0,0 l/m 3,3 km/h (1 Bft) E 1,00 h 0,203 mm 531 W/m 14,5 C 19,7 C 6,0 km/h (2 Bft)
03/06/2008 10:00 21,0 C 71 % 1011,3 hPa 0,0 l/m 5,7 km/h (1 Bft) E 1,00 h 0,330 mm 688 W/m 15,5 C 21,0 C 9,0 km/h (2 Bft)
03/06/2008 11:00 21,4 C 72 % 1011,6 hPa 0,0 l/m 6,8 km/h (2 Bft) E 1,00 h 0,432 mm 782 W/m 16,2 C 21,4 C 10,6 km/h (2 Bft)
03/06/2008 12:00 21,9 C 72 % 1011,7 hPa 0,0 l/m 8,3 km/h (2 Bft) E 1,00 h 0,483 mm 858 W/m 16,6 C 21,9 C 14,0 km/h (3 Bft)
03/06/2008 13:00 21,4 C 71 % 1011,8 hPa 0,0 l/m 11,0 km/h (2 Bft) E 1,00 h 0,533 mm 780 W/m 16,0 C 21,4 C 16,3 km/h (3 Bft)
03/06/2008 14:00 21,5 C 71 % 1011,7 hPa 0,0 l/m 9,4 km/h (2 Bft) E-NE 0,93 h 0,508 mm 738 W/m 15,9 C 21,5 C 13,8 km/h (3 Bft)
03/06/2008 15:00 22,1 C 67 % 1011,2 hPa 0,0 l/m 7,2 km/h (2 Bft) E-NE 1,00 h 0,483 mm 802 W/m 15,8 C 22,1 C 10,7 km/h (2 Bft)
03/06/2008 16:00 22,0 C 70 % 1010,5 hPa 0,0 l/m 6,0 km/h (2 Bft) E 0,88 h 0,508 mm 649 W/m 16,4 C 22,0 C 9,2 km/h (2 Bft)
03/06/2008 17:00 22,7 C 70 % 1010,3 hPa 0,0 l/m 5,6 km/h (1 Bft) E 1,00 h 0,432 mm 565 W/m 17,0 C 22,7 C 9,5 km/h (2 Bft)
03/06/2008 18:00 21,2 C 75 % 1010,0 hPa 0,0 l/m 4,8 km/h (1 Bft) E 1,00 h 0,381 mm 357 W/m 16,5 C 21,2 C 7,8 km/h (2 Bft)
03/06/2008 19:00 19,9 C 76 % 1009,9 hPa 0,0 l/m 0,9 km/h (0 Bft) E-SE 0,67 h 0,229 mm 140 W/m 15,6 C 19,9 C 2,4 km/h (1 Bft)
03/06/2008 20:00 18,4 C 82 % 1010,1 hPa 0,0 l/m 2,1 km/h (1 Bft) E-SE 0,00 h 0,076 mm 18 W/m 15,2 C 18,4 C 4,4 km/h (1 Bft)
03/06/2008 21:00 17,3 C 88 % 1010,3 hPa 0,0 l/m 2,0 km/h (1 Bft) E-NE 0,00 h 0,025 mm 5 W/m 15,3 C 17,3 C 3,6 km/h (1 Bft)
03/06/2008 22:00 17,0 C 91 % 1010,7 hPa 0,0 l/m 0,9 km/h (0 Bft) NE 0,00 h 0,000 mm 0 W/m 15,4 C 17,0 C 2,2 km/h (1 Bft)
03/06/2008 23:00 17,2 C 91 % 1010,8 hPa 0,0 l/m 0,1 km/h (0 Bft) NE 0,00 h 0,025 mm 0 W/m 15,7 C 17,2 C 0,1 km/h (0 Bft)
04/06/2008 00:00 16,6 C 91 % 1010,7 hPa 0,0 l/m 2,9 km/h (1 Bft) N 0,00 h 0,025 mm 0 W/m 15,1 C 16,6 C 4,4 km/h (1 Bft)
04/06/2008 01:00 15,4 C 92 % 1010,4 hPa 0,0 l/m 5,3 km/h (1 Bft) O 0,00 h 0,025 mm 0 W/m 14,1 C 15,4 C 7,0 km/h (2 Bft)
04/06/2008 02:00 14,5 C 92 % 1009,9 hPa 0,0 l/m 3,7 km/h (1 Bft) O-NO 0,00 h 0,025 mm 0 W/m 13,3 C 14,5 C 6,0 km/h (2 Bft)
04/06/2008 03:00 14,5 C 93 % 1009,2 hPa 0,0 l/m 1,4 km/h (1 Bft) O-NO 0,00 h 0,025 mm 0 W/m 13,3 C 14,5 C 2,6 km/h (1 Bft)
04/06/2008 04:00 14,0 C 92 % 1009,2 hPa 0,0 l/m 3,3 km/h (1 Bft) SO 0,00 h 0,000 mm 0 W/m 12,7 C 14,0 C 4,1 km/h (1 Bft)
04/06/2008 05:00 14,2 C 91 % 1009,6 hPa 0,0 l/m 3,3 km/h (1 Bft) S-SO 0,00 h 0,025 mm 0 W/m 12,8 C 14,2 C 4,5 km/h (1 Bft)
04/06/2008 06:00 14,8 C 89 % 1009,9 hPa 0,0 l/m 3,4 km/h (1 Bft) O-NO 0,00 h 0,000 mm 23 W/m 13,0 C 14,8 C 5,4 km/h (1 Bft)
04/06/2008 07:00 15,8 C 87 % 1009,7 hPa 0,0 l/m 4,8 km/h (1 Bft) O-NO 0,42 h 0,025 mm 141 W/m 13,7 C 15,8 C 7,3 km/h (2 Bft)
04/06/2008 08:00 18,7 C 78 % 1009,6 hPa 0,0 l/m 1,3 km/h (1 Bft) E-SE 1,00 h 0,076 mm 361 W/m 14,7 C 18,7 C 3,0 km/h (1 Bft)
04/06/2008 09:00 19,8 C 74 % 1009,8 hPa 0,0 l/m 4,8 km/h (1 Bft) S 0,78 h 0,203 mm 480 W/m 15,1 C 19,8 C 7,5 km/h (2 Bft)
04/06/2008 10:00 20,2 C 74 % 1010,0 hPa 0,0 l/m 7,1 km/h (2 Bft) S 0,68 h 0,279 mm 653 W/m 15,5 C 20,2 C 11,9 km/h (2 Bft)
04/06/2008 11:00 21,1 C 71 % 1010,1 hPa 0,0 l/m 8,7 km/h (2 Bft) S 1,00 h 0,406 mm 830 W/m 15,6 C 21,1 C 13,5 km/h (3 Bft)
04/06/2008 12:00 22,2 C 68 % 1010,0 hPa 0,0 l/m 8,2 km/h (2 Bft) S 0,97 h 0,508 mm 907 W/m 16,0 C 22,2 C 13,3 km/h (3 Bft)
04/06/2008 13:00 22,9 C 68 % 1009,7 hPa 0,0 l/m 8,9 km/h (2 Bft) E 0,97 h 0,584 mm 979 W/m 16,6 C 22,9 C 13,8 km/h (3 Bft)
04/06/2008 14:00 22,2 C 69 % 1009,7 hPa 0,0 l/m 6,8 km/h (2 Bft) E 0,97 h 0,610 mm 817 W/m 16,2 C 22,2 C 11,0 km/h (2 Bft)
04/06/2008 15:00 21,4 C 72 % 1009,4 hPa 0,0 l/m 5,7 km/h (1 Bft) E 0,20 h 0,508 mm 306 W/m 16,1 C 21,4 C 8,5 km/h (2 Bft)
04/06/2008 16:00 19,3 C 88 % 1009,1 hPa 0,6 l/m 4,2 km/h (1 Bft) E-SE 0,15 h 0,203 mm 287 W/m 17,2 C 19,3 C 6,3 km/h (2 Bft)
04/06/2008 17:00 19,2 C 87 % 1008,9 hPa 0,0 l/m 3,7 km/h (1 Bft) S-SE 0,00 h 0,178 mm 161 W/m 16,9 C 19,2 C 6,0 km/h (2 Bft)
04/06/2008 18:00 19,2 C 86 % 1008,9 hPa 0,0 l/m 2,8 km/h (1 Bft) SE 0,00 h 0,102 mm 135 W/m 16,7 C 19,2 C 4,7 km/h (1 Bft)
04/06/2008 19:00 19,3 C 84 % 1008,5 hPa 0,0 l/m 0,8 km/h (0 Bft) E 0,00 h 0,076 mm 88 W/m 16,4 C 19,3 C 1,9 km/h (1 Bft)
04/06/2008 20:00 18,8 C 85 % 1008,3 hPa 0,0 l/m 0,9 km/h (0 Bft) E 0,00 h 0,051 mm 24 W/m 16,1 C 18,8 C 1,6 km/h (1 Bft)
04/06/2008 21:00 17,8 C 86 % 1008,4 hPa 0,0 l/m 1,8 km/h (1 Bft) E 0,00 h 0,025 mm 5 W/m 15,5 C 17,8 C 3,1 km/h (1 Bft)
04/06/2008 22:00 17,4 C 86 % 1008,7 hPa 0,0 l/m 0,4 km/h (0 Bft) E-NE 0,00 h 0,000 mm 0 W/m 15,0 C 17,4 C 1,0 km/h (0 Bft)
04/06/2008 23:00 17,1 C 86 % 1008,9 hPa 0,0 l/m 0,9 km/h (0 Bft) E-NE 0,00 h 0,025 mm 0 W/m 14,9 C 17,1 C 2,5 km/h (1 Bft)
05/06/2008 00:00 16,9 C 88 % 1008,7 hPa 0,0 l/m 2,1 km/h (1 Bft) N-NE 0,00 h 0,025 mm 0 W/m 14,9 C 16,9 C 4,6 km/h (1 Bft)
05/06/2008 01:00 16,7 C 89 % 1008,3 hPa 0,2 l/m 2,2 km/h (1 Bft) NE 0,00 h 0,025 mm 0 W/m 14,9 C 16,7 C 4,1 km/h (1 Bft)
05/06/2008 02:00 16,3 C 91 % 1007,9 hPa 0,0 l/m 0,5 km/h (0 Bft) NE 0,00 h 0,025 mm 0 W/m 14,7 C 16,3 C 1,4 km/h (1 Bft)
05/06/2008 03:00 16,1 C 91 % 1007,4 hPa 0,0 l/m 0,1 km/h (0 Bft) NE 0,00 h 0,025 mm 0 W/m 14,6 C 16,1 C 0,3 km/h (0 Bft)
05/06/2008 04:00 15,8 C 91 % 1006,9 hPa 0,0 l/m 1,0 km/h (0 Bft) NE 0,00 h 0,000 mm 0 W/m 14,3 C 15,8 C 1,5 km/h (1 Bft)
05/06/2008 05:00 15,4 C 91 % 1006,9 hPa 0,0 l/m 2,0 km/h (1 Bft) O 0,00 h 0,025 mm 0 W/m 14,0 C 15,4 C 3,0 km/h (1 Bft)
05/06/2008 06:00 15,1 C 91 % 1006,9 hPa 0,0 l/m 2,3 km/h (1 Bft) O-NO 0,00 h 0,000 mm 14 W/m 13,7 C 15,1 C 4,0 km/h (1 Bft)
05/06/2008 07:00 16,0 C 92 % 1006,8 hPa 0,0 l/m 1,2 km/h (1 Bft) N-NE 0,03 h 0,025 mm 103 W/m 14,6 C 16,0 C 2,9 km/h (1 Bft)
05/06/2008 08:00 17,8 C 86 % 1006,8 hPa 0,0 l/m 1,1 km/h (0 Bft) N-NE 0,47 h 0,051 mm 240 W/m 15,5 C 17,8 C 2,6 km/h (1 Bft)
05/06/2008 09:00 18,9 C 84 % 1007,0 hPa 0,0 l/m 4,7 km/h (1 Bft) E 0,15 h 0,152 mm 236 W/m 16,0 C 18,9 C 7,6 km/h (2 Bft)
05/06/2008 10:00 18,3 C 87 % 1007,3 hPa 0,0 l/m 8,7 km/h (2 Bft) E-NE 0,00 h 0,152 mm 170 W/m 16,0 C 18,3 C 13,1 km/h (3 Bft)
05/06/2008 11:00 17,8 C 89 % 1007,6 hPa 0,2 l/m 6,0 km/h (2 Bft) E 0,00 h 0,127 mm 117 W/m 16,0 C 17,8 C 10,2 km/h (2 Bft)
05/06/2008 12:00 17,4 C 89 % 1007,7 hPa 0,0 l/m 5,1 km/h (1 Bft) E 0,00 h 0,076 mm 146 W/m 15,5 C 17,4 C 9,3 km/h (2 Bft)
05/06/2008 13:00 17,3 C 91 % 1007,9 hPa 2,4 l/m 3,2 km/h (1 Bft) E 0,00 h 0,102 mm 89 W/m 15,8 C 17,3 C 6,2 km/h (2 Bft)
05/06/2008 14:00 17,1 C 94 % 1007,9 hPa 1,4 l/m 2,2 km/h (1 Bft) SE 0,00 h 0,051 mm 168 W/m 16,1 C 17,1 C 5,0 km/h (1 Bft)
05/06/2008 15:00 17,0 C 94 % 1008,0 hPa 0,0 l/m 1,1 km/h (1 Bft) E-SE 0,00 h 0,102 mm 188 W/m 16,1 C 17,0 C 2,5 km/h (1 Bft)
05/06/2008 16:00 17,3 C 93 % 1007,9 hPa 0,0 l/m 1,5 km/h (1 Bft) N-NO 0,00 h 0,102 mm 123 W/m 16,2 C 17,3 C 3,1 km/h (1 Bft)
05/06/2008 17:00 16,8 C 94 % 1007,9 hPa 0,0 l/m 0,6 km/h (0 Bft) NO 0,00 h 0,076 mm 69 W/m 15,8 C 16,8 C 1,3 km/h (1 Bft)
05/06/2008 18:00 16,7 C 94 % 1008,0 hPa 0,0 l/m 0,1 km/h (0 Bft) NO 0,00 h 0,051 mm 53 W/m 15,7 C 16,7 C 0,3 km/h (0 Bft)
05/06/2008 19:00 16,8 C 93 % 1008,2 hPa 0,0 l/m 0,5 km/h (0 Bft) NO 0,00 h 0,025 mm 37 W/m 15,7 C 16,8 C 1,4 km/h (1 Bft)
05/06/2008 20:00 16,5 C 93 % 1008,2 hPa 0,0 l/m 0,0 km/h (0 Bft) NE 0,00 h 0,025 mm 8 W/m 15,3 C 16,5 C 0,2 km/h (0 Bft)
05/06/2008 21:00 16,3 C 94 % 1008,6 hPa 0,0 l/m 0,0 km/h (0 Bft) N 0,00 h 0,000 mm 0 W/m 15,3 C 16,3 C 0,0 km/h (0 Bft)
05/06/2008 22:00 16,3 C 94 % 1008,8 hPa 0,0 l/m 0,1 km/h (0 Bft) NE 0,00 h 0,000 mm 0 W/m 15,3 C 16,3 C 0,5 km/h (0 Bft)
05/06/2008 23:00 16,1 C 94 % 1009,1 hPa 0,0 l/m 0,8 km/h (0 Bft) NE 0,00 h 0,000 mm 0 W/m 15,2 C 16,1 C 2,0 km/h (1 Bft)
06/06/2008 00:00 15,8 C 95 % 1008,9 hPa 0,0 l/m 0,1 km/h (0 Bft) NE 0,00 h 0,000 mm 0 W/m 15,0 C 15,8 C 0,3 km/h (0 Bft)
06/06/2008 01:00 15,7 C 95 % 1008,7 hPa 0,0 l/m 0,0 km/h (0 Bft) N 0,00 h 0,000 mm 0 W/m 14,9 C 15,7 C 0,0 km/h (0 Bft)
06/06/2008 02:00 15,6 C 95 % 1008,7 hPa 0,0 l/m 0,0 km/h (0 Bft) N 0,00 h 0,000 mm 0 W/m 14,8 C 15,6 C 0,0 km/h (0 Bft)
06/06/2008 03:00 15,7 C 95 % 1008,3 hPa 0,0 l/m 0,0 km/h (0 Bft) N 0,00 h 0,000 mm 0 W/m 14,9 C 15,7 C 0,0 km/h (0 Bft)
06/06/2008 04:00 15,7 C 95 % 1008,1 hPa 0,0 l/m 0,0 km/h (0 Bft) N 0,00 h 0,000 mm 0 W/m 14,9 C 15,7 C 0,0 km/h (0 Bft)
06/06/2008 05:00 15,5 C 95 % 1008,0 hPa 0,0 l/m 0,2 km/h (0 Bft) NE 0,00 h 0,000 mm 5 W/m 14,7 C 15,5 C 0,7 km/h (0 Bft)
06/06/2008 06:00 15,1 C 95 % 1007,7 hPa 0,0 l/m 0,1 km/h (0 Bft) NE 0,00 h 0,000 mm 32 W/m 14,3 C 15,1 C 0,4 km/h (0 Bft)
06/06/2008 07:00 16,1 C 95 % 1008,0 hPa 0,0 l/m 0,0 km/h (0 Bft) N 0,00 h 0,025 mm 77 W/m 15,3 C 16,1 C 0,0 km/h (0 Bft)
06/06/2008 08:00 16,9 C 93 % 1008,2 hPa 0,0 l/m 1,3 km/h (1 Bft) NE 0,00 h 0,051 mm 183 W/m 15,8 C 16,9 C 2,7 km/h (1 Bft)
06/06/2008 09:00 18,5 C 88 % 1008,1 hPa 0,0 l/m 2,9 km/h (1 Bft) E-NE 0,13 h 0,102 mm 250 W/m 16,4 C 18,5 C 4,9 km/h (1 Bft)
06/06/2008 10:00 19,5 C 84 % 1008,0 hPa 0,0 l/m 3,6 km/h (1 Bft) E-SE 0,67 h 0,152 mm 518 W/m 16,8 C 19,5 C 6,6 km/h (2 Bft)
06/06/2008 11:00 21,2 C 75 % 1008,0 hPa 0,0 l/m 7,1 km/h (2 Bft) E 1,00 h 0,305 mm 848 W/m 16,5 C 21,2 C 12,2 km/h (3 Bft)
06/06/2008 12:00 21,5 C 73 % 1008,2 hPa 0,0 l/m 10,1 km/h (2 Bft) E 0,92 h 0,533 mm 850 W/m 16,5 C 21,5 C 15,6 km/h (3 Bft)
06/06/2008 13:00 21,8 C 74 % 1008,0 hPa 0,0 l/m 9,0 km/h (2 Bft) E 0,95 h 0,533 mm 936 W/m 16,9 C 21,8 C 14,5 km/h (3 Bft)
06/06/2008 14:00 22,0 C 74 % 1007,9 hPa 0,0 l/m 9,8 km/h (2 Bft) E 1,00 h 0,584 mm 905 W/m 17,1 C 22,0 C 15,7 km/h (3 Bft)
06/06/2008 15:00 21,8 C 70 % 1007,9 hPa 0,0 l/m 8,5 km/h (2 Bft) E 1,00 h 0,559 mm 805 W/m 16,1 C 21,8 C 13,9 km/h (3 Bft)
06/06/2008 16:00 22,0 C 71 % 1008,0 hPa 0,0 l/m 7,2 km/h (2 Bft) E 0,92 h 0,508 mm 715 W/m 16,5 C 22,0 C 12,4 km/h (3 Bft)
06/06/2008 17:00 20,7 C 75 % 1008,0 hPa 0,0 l/m 4,9 km/h (1 Bft) E 0,57 h 0,457 mm 343 W/m 16,2 C 20,7 C 8,7 km/h (2 Bft)
06/06/2008 18:00 18,7 C 82 % 1008,1 hPa 0,0 l/m 4,8 km/h (1 Bft) E 0,00 h 0,229 mm 102 W/m 15,6 C 18,7 C 7,6 km/h (2 Bft)
06/06/2008 19:00 18,0 C 86 % 1007,8 hPa 0,0 l/m 2,8 km/h (1 Bft) E 0,00 h 0,076 mm 63 W/m 15,6 C 18,0 C 4,9 km/h (1 Bft)
06/06/2008 20:00 17,4 C 87 % 1007,8 hPa 0,0 l/m 0,9 km/h (0 Bft) E-SE 0,00 h 0,051 mm 18 W/m 15,2 C 17,4 C 2,4 km/h (1 Bft)
06/06/2008 21:00 17,0 C 88 % 1008,1 hPa 0,0 l/m 0,4 km/h (0 Bft) E-SE 0,00 h 0,025 mm 0 W/m 15,0 C 17,0 C 1,0 km/h (0 Bft)
06/06/2008 22:00 16,9 C 89 % 1008,6 hPa 0,0 l/m 0,4 km/h (0 Bft) E-SE 0,00 h 0,000 mm 0 W/m 15,0 C 16,9 C 1,1 km/h (1 Bft)
06/06/2008 23:00 16,7 C 89 % 1008,7 hPa 0,0 l/m 0,2 km/h (0 Bft) E-SE 0,00 h 0,025 mm 0 W/m 14,9 C 16,7 C 0,6 km/h (0 Bft)
07/06/2008 00:00 16,1 C 89 % 1008,6 hPa 0,0 l/m 2,0 km/h (1 Bft) S-SO 0,00 h 0,025 mm 0 W/m 14,3 C 16,1 C 3,7 km/h (1 Bft)
07/06/2008 01:00 15,8 C 90 % 1008,4 hPa 0,0 l/m 0,6 km/h (0 Bft) S-SO 0,00 h 0,025 mm 0 W/m 14,2 C 15,8 C 1,1 km/h (1 Bft)
07/06/2008 02:00 15,7 C 91 % 1008,5 hPa 0,0 l/m 0,2 km/h (0 Bft) S-SO 0,00 h 0,025 mm 0 W/m 14,2 C 15,7 C 0,6 km/h (0 Bft)
07/06/2008 03:00 15,4 C 92 % 1008,4 hPa 0,0 l/m 1,1 km/h (0 Bft) S-SO 0,00 h 0,000 mm 0 W/m 14,1 C 15,4 C 2,3 km/h (1 Bft)
07/06/2008 04:00 15,1 C 92 % 1008,0 hPa 0,0 l/m 1,6 km/h (1 Bft) SO 0,00 h 0,025 mm 0 W/m 13,8 C 15,1 C 3,2 km/h (1 Bft)
07/06/2008 05:00 14,8 C 93 % 1008,1 hPa 0,0 l/m 1,2 km/h (1 Bft) SO 0,00 h 0,025 mm 6 W/m 13,7 C 14,8 C 2,2 km/h (1 Bft)
07/06/2008 06:00 14,9 C 93 % 1008,2 hPa 0,0 l/m 1,3 km/h (1 Bft) O-NO 0,02 h 0,000 mm 38 W/m 13,7 C 14,9 C 2,6 km/h (1 Bft)
07/06/2008 07:00 16,3 C 90 % 1008,5 hPa 0,0 l/m 2,1 km/h (1 Bft) N-NE 0,65 h 0,025 mm 180 W/m 14,8 C 16,3 C 3,6 km/h (1 Bft)
07/06/2008 08:00 19,0 C 78 % 1008,5 hPa 0,0 l/m 4,6 km/h (1 Bft) E-NE 1,00 h 0,102 mm 375 W/m 15,1 C 19,0 C 7,2 km/h (2 Bft)
07/06/2008 09:00 20,3 C 73 % 1008,8 hPa 0,0 l/m 5,5 km/h (1 Bft) E-NE 0,75 h 0,229 mm 499 W/m 15,3 C 20,3 C 8,7 km/h (2 Bft)
07/06/2008 10:00 21,3 C 72 % 1009,0 hPa 0,0 l/m 8,8 km/h (2 Bft) E 0,98 h 0,305 mm 658 W/m 16,1 C 21,3 C 12,6 km/h (3 Bft)
07/06/2008 11:00 21,5 C 72 % 1009,3 hPa 0,0 l/m 8,9 km/h (2 Bft) E 0,95 h 0,406 mm 767 W/m 16,2 C 21,5 C 14,7 km/h (3 Bft)
07/06/2008 12:00 22,3 C 70 % 1009,4 hPa 0,0 l/m 10,0 km/h (2 Bft) E 1,00 h 0,483 mm 939 W/m 16,5 C 22,3 C 15,9 km/h (3 Bft)
07/06/2008 13:00 21,4 C 73 % 1009,6 hPa 0,0 l/m 8,8 km/h (2 Bft) E 1,00 h 0,610 mm 655 W/m 16,4 C 21,4 C 14,1 km/h (3 Bft)
07/06/2008 14:00 21,3 C 74 % 1009,3 hPa 0,0 l/m 6,1 km/h (2 Bft) E 1,00 h 0,432 mm 615 W/m 16,5 C 21,3 C 10,5 km/h (2 Bft)
07/06/2008 15:00 21,8 C 71 % 1009,1 hPa 0,0 l/m 7,3 km/h (2 Bft) E 1,00 h 0,381 mm 776 W/m 16,2 C 21,8 C 11,4 km/h (2 Bft)
07/06/2008 16:00 21,8 C 71 % 1009,0 hPa 0,0 l/m 6,8 km/h (2 Bft) E 1,00 h 0,483 mm 670 W/m 16,2 C 21,8 C 10,8 km/h (2 Bft)
07/06/2008 17:00 22,1 C 67 % 1008,8 hPa 0,0 l/m 5,1 km/h (1 Bft) E 0,87 h 0,432 mm 509 W/m 15,7 C 22,1 C 8,3 km/h (2 Bft)
07/06/2008 18:00 20,3 C 72 % 1008,6 hPa 0,0 l/m 2,7 km/h (1 Bft) E 0,33 h 0,330 mm 168 W/m 15,2 C 20,3 C 4,9 km/h (1 Bft)
07/06/2008 19:00 21,0 C 72 % 1008,2 hPa 0,0 l/m 2,0 km/h (1 Bft) E-SE 0,83 h 0,102 mm 204 W/m 15,8 C 21,0 C 3,8 km/h (1 Bft)
07/06/2008 20:00 19,0 C 78 % 1008,4 hPa 0,0 l/m 1,9 km/h (1 Bft) E 0,02 h 0,127 mm 30 W/m 15,0 C 19,0 C 3,3 km/h (1 Bft)
07/06/2008 21:00 17,4 C 82 % 1008,6 hPa 0,0 l/m 0,5 km/h (0 Bft) E 0,02 h 0,025 mm 6 W/m 14,2 C 17,4 C 1,1 km/h (1 Bft)
07/06/2008 22:00 16,8 C 85 % 1009,3 hPa 0,0 l/m 0,2 km/h (0 Bft) E 0,00 h 0,000 mm 0 W/m 14,3 C 16,8 C 0,4 km/h (0 Bft)
07/06/2008 23:00 16,3 C 87 % 1009,6 hPa 0,0 l/m 0,3 km/h (0 Bft) E 0,00 h 0,025 mm 0 W/m 14,2 C 16,3 C 0,7 km/h (0 Bft)
08/06/2008 00:00 16,2 C 89 % 1009,5 hPa 0,0 l/m 0,6 km/h (0 Bft) E 0,00 h 0,025 mm 0 W/m 14,3 C 16,2 C 1,3 km/h (1 Bft)
08/06/2008 01:00 16,0 C 89 % 1009,3 hPa 0,0 l/m 2,3 km/h (1 Bft) O 0,00 h 0,025 mm 0 W/m 14,2 C 16,0 C 3,4 km/h (1 Bft)
08/06/2008 02:00 15,7 C 90 % 1009,3 hPa 0,0 l/m 0,9 km/h (0 Bft) O 0,00 h 0,025 mm 0 W/m 14,1 C 15,7 C 1,5 km/h (1 Bft)
08/06/2008 03:00 15,4 C 90 % 1009,2 hPa 0,0 l/m 0,0 km/h (0 Bft) N 0,00 h 0,025 mm 0 W/m 13,8 C 15,4 C 0,0 km/h (0 Bft)
08/06/2008 04:00 15,2 C 90 % 1009,1 hPa 0,0 l/m 1,4 km/h (1 Bft) O-NO 0,00 h 0,025 mm 0 W/m 13,6 C 15,2 C 2,5 km/h (1 Bft)
08/06/2008 05:00 15,2 C 90 % 1009,1 hPa 0,0 l/m 1,3 km/h (1 Bft) O-NO 0,00 h 0,025 mm 0 W/m 13,6 C 15,2 C 2,5 km/h (1 Bft)
08/06/2008 06:00 15,6 C 90 % 1009,4 hPa 0,0 l/m 0,3 km/h (0 Bft) O-NO 0,00 h 0,000 mm 5 W/m 14,0 C 15,6 C 0,7 km/h (0 Bft)
08/06/2008 07:00 15,4 C 90 % 1010,3 hPa 2,2 l/m 1,7 km/h (1 Bft) N 0,00 h 0,000 mm 5 W/m 13,8 C 15,4 C 3,8 km/h (1 Bft)
08/06/2008 08:00 15,0 C 92 % 1010,8 hPa 4,6 l/m 8,4 km/h (2 Bft) O-NO 0,00 h 0,000 mm 17 W/m 13,6 C 15,0 C 12,9 km/h (3 Bft)
08/06/2008 09:00 14,9 C 93 % 1010,9 hPa 2,6 l/m 4,6 km/h (1 Bft) N-NO 0,00 h 0,025 mm 59 W/m 13,8 C 14,9 C 6,5 km/h (2 Bft)
08/06/2008 10:00 16,5 C 94 % 1010,8 hPa 0,2 l/m 5,5 km/h (1 Bft) O 0,08 h 0,051 mm 312 W/m 15,6 C 16,5 C 7,9 km/h (2 Bft)
08/06/2008 11:00 19,0 C 88 % 1011,1 hPa 0,0 l/m 3,8 km/h (1 Bft) SO 0,65 h 0,178 mm 642 W/m 16,8 C 19,0 C 6,0 km/h (2 Bft)
08/06/2008 12:00 21,5 C 74 % 1011,2 hPa 0,0 l/m 5,9 km/h (2 Bft) S 0,83 h 0,381 mm 837 W/m 16,7 C 21,5 C 9,4 km/h (2 Bft)
08/06/2008 13:00 22,5 C 71 % 1011,1 hPa 0,0 l/m 6,9 km/h (2 Bft) E 0,68 h 0,508 mm 717 W/m 17,0 C 22,5 C 11,1 km/h (2 Bft)
08/06/2008 14:00 23,3 C 67 % 1011,1 hPa 0,0 l/m 10,2 km/h (2 Bft) E 0,85 h 0,483 mm 752 W/m 16,7 C 23,3 C 15,1 km/h (3 Bft)
08/06/2008 15:00 23,6 C 63 % 1011,2 hPa 0,0 l/m 10,1 km/h (2 Bft) E-NE 0,85 h 0,508 mm 737 W/m 16,1 C 23,6 C 15,3 km/h (3 Bft)
08/06/2008 16:00 23,7 C 61 % 1011,0 hPa 0,0 l/m 10,2 km/h (2 Bft) E-NE 1,00 h 0,533 mm 669 W/m 15,6 C 23,7 C 14,8 km/h (3 Bft)
08/06/2008 17:00 22,8 C 65 % 1010,8 hPa 0,0 l/m 7,1 km/h (2 Bft) E 0,65 h 0,483 mm 424 W/m 15,9 C 22,8 C 10,3 km/h (2 Bft)
08/06/2008 18:00 22,7 C 65 % 1010,7 hPa 0,0 l/m 2,9 km/h (1 Bft) E-SE 0,98 h 0,305 mm 366 W/m 15,8 C 22,7 C 5,5 km/h (1 Bft)
08/06/2008 19:00 22,0 C 70 % 1011,2 hPa 0,0 l/m 7,1 km/h (2 Bft) S-SO 0,87 h 0,229 mm 216 W/m 16,4 C 22,0 C 10,3 km/h (2 Bft)
08/06/2008 20:00 20,5 C 76 % 1011,4 hPa 0,0 l/m 5,2 km/h (1 Bft) S 0,92 h 0,178 mm 61 W/m 16,0 C 20,5 C 7,3 km/h (2 Bft)
08/06/2008 21:00 19,2 C 79 % 1011,9 hPa 0,0 l/m 2,0 km/h (1 Bft) S 0,02 h 0,051 mm 9 W/m 15,5 C 19,2 C 3,4 km/h (1 Bft)
08/06/2008 22:00 18,4 C 81 % 1012,4 hPa 0,0 l/m 0,4 km/h (0 Bft) S 0,00 h 0,025 mm 0 W/m 15,2 C 18,4 C 0,8 km/h (0 Bft)
08/06/2008 23:00 17,9 C 84 % 1012,8 hPa 0,0 l/m 0,1 km/h (0 Bft) S 0,00 h 0,025 mm 0 W/m 15,2 C 17,9 C 0,6 km/h (0 Bft)
Min-Date _ 04/06/08 08/06/08 05/06/08 - 02/06/08 - - - - 03/06/08 04/06/08 02/06/08
_ Min-Heure 04:11 16:01 04:30 - 00:28 - - - - 06:36 04:11 00:28
Minimum _ 13,7 C 55 % 1006,7 hPa - 0,0 km/h (0 Bft) - - - - 11,6 C 13,7 C 0,0 km/h (0 Bft)
Max-Date _ 08/06/08 02/06/08 02/06/08 08/06/08 03/06/08 - 02/06/08 04/06/08 04/06/08 06/06/08 08/06/08 02/06/08
_ Max-Heure 15:47 07:07 03:15 08:02 13:27 - 16:43 14:00 14:37 14:08 15:47 17:06
Maximum _ 24,3 C 95 % 1014,0 hPa 4,6 l/m 17,7 km/h
E (3 Bft)
- 0,03 h 0,610 mm 1192 W/m 18,2 C 24,3 C 25,7 km/h
E (4 Bft)
Moyenne _ 18,2 C 84 % 1009,8 hPa #21,6 l/m 3,6 km/h (1 Bft) E #53:43 h #27,032 mm 365 W/m 15,2 C 18,2 C 5,9 km/h (2 Bft)
Roquefort les pins